createdAt,value
2023-01-26T00:01:48.731Z,24.60
2023-01-26T00:04:17.006Z,21.70
2023-01-26T00:06:45.164Z,23.50
2023-01-26T00:09:14.599Z,27.90
2023-01-26T00:11:42.995Z,32.50
2023-01-26T00:14:11.309Z,29.40
2023-01-26T00:16:39.729Z,34.10
2023-01-26T00:19:07.704Z,31.10
2023-01-26T00:21:36.380Z,30.40
2023-01-26T00:24:04.754Z,33.50
2023-01-26T00:26:33.872Z,29.30
2023-01-26T00:29:02.330Z,29.30
2023-01-26T00:31:30.553Z,34.70
2023-01-26T00:34:00.716Z,29.80
2023-01-26T00:36:29.137Z,30.90
2023-01-26T00:38:57.584Z,34.80
2023-01-26T00:41:44.348Z,38.60
2023-01-26T00:44:12.772Z,34.00
2023-01-26T00:46:41.135Z,30.30
2023-01-26T00:49:10.821Z,26.80
2023-01-26T00:51:39.077Z,22.70
2023-01-26T00:54:07.053Z,21.80
2023-01-26T00:56:36.036Z,24.70
2023-01-26T00:59:04.288Z,24.60
2023-01-26T01:01:32.587Z,22.50
2023-01-26T01:04:01.752Z,23.40
2023-01-26T01:06:30.327Z,21.50
2023-01-26T01:08:58.352Z,20.60
2023-01-26T01:11:26.419Z,20.30
2023-01-26T01:13:54.546Z,20.70
2023-01-26T01:16:22.812Z,20.70
2023-01-26T01:18:55.103Z,20.80
2023-01-26T01:21:23.797Z,23.30
2023-01-26T01:23:52.115Z,24.50
2023-01-26T01:26:20.357Z,24.30
2023-01-26T01:28:48.603Z,23.00
2023-01-26T01:31:17.036Z,23.30
2023-01-26T01:33:45.124Z,22.50
2023-01-26T01:36:15.378Z,23.50
2023-01-26T01:38:44.346Z,22.30
2023-01-26T01:41:17.353Z,21.50
2023-01-26T01:43:45.637Z,22.90
2023-01-26T01:46:35.915Z,20.30
2023-01-26T01:49:17.935Z,22.90
2023-01-26T01:52:11.313Z,23.10
2023-01-26T01:54:48.965Z,19.70
2023-01-26T01:57:28.015Z,20.90
2023-01-26T02:02:29.153Z,16.80
2023-01-26T02:04:58.036Z,17.00
2023-01-26T02:07:30.543Z,16.40
2023-01-26T02:10:17.741Z,17.40
2023-01-26T02:12:51.256Z,15.70
2023-01-26T02:15:19.295Z,17.60
2023-01-26T02:17:47.497Z,17.20
2023-01-26T02:20:43.321Z,17.20
2023-01-26T02:23:14.554Z,17.00
2023-01-26T02:25:53.082Z,17.90
2023-01-26T02:28:22.510Z,19.50
2023-01-26T02:30:50.871Z,18.60
2023-01-26T02:33:22.516Z,18.40
2023-01-26T02:35:51.032Z,16.10
2023-01-26T02:38:20.383Z,17.00
2023-01-26T02:40:55.159Z,17.10
2023-01-26T02:43:24.628Z,16.80
2023-01-26T02:45:52.839Z,16.20
2023-01-26T02:48:39.668Z,16.00
2023-01-26T02:51:08.275Z,17.60
2023-01-26T02:53:36.303Z,18.20
2023-01-26T02:56:05.126Z,15.10
2023-01-26T02:58:35.184Z,15.40
2023-01-26T03:01:03.570Z,16.70
2023-01-26T03:03:45.228Z,16.70
2023-01-26T03:06:15.399Z,16.50
2023-01-26T03:08:43.706Z,15.60
2023-01-26T03:11:11.734Z,17.10
2023-01-26T03:13:40.161Z,17.10
2023-01-26T03:16:10.386Z,17.50
2023-01-26T03:18:57.649Z,17.60
2023-01-26T03:21:44.831Z,17.00
2023-01-26T03:24:33.343Z,18.50
2023-01-26T03:29:49.621Z,16.60
2023-01-26T03:32:19.024Z,16.90
2023-01-26T03:34:48.168Z,16.30
2023-01-26T03:37:16.267Z,15.00
2023-01-26T03:40:14.097Z,17.70
2023-01-26T03:43:01.795Z,17.20
2023-01-26T03:45:49.425Z,16.70
2023-01-26T03:48:36.544Z,17.20
2023-01-26T03:51:24.815Z,18.30
2023-01-26T03:54:11.931Z,17.50
2023-01-26T03:56:40.569Z,18.00
2023-01-26T03:59:16.000Z,21.20
2023-01-26T04:02:04.893Z,18.60
2023-01-26T04:04:53.596Z,19.90
2023-01-26T04:07:44.691Z,20.10
2023-01-26T04:10:13.432Z,18.90
2023-01-26T04:12:42.022Z,15.70
2023-01-26T04:15:34.956Z,17.20
2023-01-26T04:18:28.123Z,16.00
2023-01-26T04:21:15.908Z,15.80
2023-01-26T04:23:45.493Z,14.50
2023-01-26T04:26:13.860Z,17.70
2023-01-26T04:28:42.658Z,16.00
2023-01-26T04:31:11.232Z,15.80
2023-01-26T04:33:40.067Z,18.20
2023-01-26T04:36:08.843Z,20.00
2023-01-26T04:38:40.409Z,19.20
2023-01-26T04:41:08.946Z,20.00
2023-01-26T04:43:43.957Z,18.90
2023-01-26T04:46:12.000Z,18.50
2023-01-26T04:48:41.451Z,20.30
2023-01-26T04:51:14.929Z,19.80
2023-01-26T04:53:43.338Z,19.30
2023-01-26T04:56:25.020Z,17.70
2023-01-26T04:58:54.442Z,17.90
2023-01-26T05:01:23.580Z,18.20
2023-01-26T05:03:52.738Z,18.90
2023-01-26T05:06:21.309Z,19.70
2023-01-26T05:08:50.985Z,17.70
2023-01-26T05:11:19.332Z,19.00
2023-01-26T05:14:02.023Z,19.00
2023-01-26T05:16:57.849Z,18.40
2023-01-26T05:19:43.095Z,19.50
2023-01-26T05:22:34.309Z,17.30
2023-01-26T05:25:22.246Z,18.80
2023-01-26T05:28:04.944Z,21.10
2023-01-26T05:30:33.124Z,19.10
2023-01-26T05:33:06.182Z,17.30
2023-01-26T05:35:35.445Z,17.90
2023-01-26T05:38:04.670Z,15.90
2023-01-26T05:40:34.327Z,14.80
2023-01-26T05:43:02.706Z,17.20
2023-01-26T05:45:59.491Z,20.70
2023-01-26T05:48:27.695Z,18.80
2023-01-26T05:50:57.813Z,16.10
2023-01-26T05:53:26.868Z,17.40
2023-01-26T05:55:55.324Z,16.30
2023-01-26T05:58:25.623Z,20.40
2023-01-26T06:00:54.446Z,19.30
2023-01-26T06:03:25.709Z,19.50
2023-01-26T06:05:54.916Z,23.00
2023-01-26T06:08:32.268Z,26.90
2023-01-26T06:11:20.606Z,27.80
2023-01-26T06:14:06.612Z,29.80
2023-01-26T06:16:35.005Z,27.00
2023-01-26T06:19:03.453Z,28.40
2023-01-26T06:21:33.074Z,24.50
2023-01-26T06:24:01.306Z,29.60
2023-01-26T06:26:29.720Z,35.10
2023-01-26T06:28:58.805Z,34.70
2023-01-26T06:31:29.867Z,37.30
2023-01-26T06:34:00.283Z,48.50
2023-01-26T06:36:29.056Z,51.40
2023-01-26T06:39:00.458Z,43.60
2023-01-26T06:41:29.623Z,49.30
2023-01-26T06:43:57.892Z,58.20
2023-01-26T06:46:26.490Z,80.30
2023-01-26T06:48:56.119Z,82.00
2023-01-26T06:51:52.552Z,77.80
2023-01-26T06:54:21.311Z,73.30
2023-01-26T06:57:11.871Z,81.20
2023-01-26T07:02:26.236Z,78.20
2023-01-26T07:04:54.318Z,86.60
2023-01-26T07:07:24.681Z,86.60
2023-01-26T07:10:13.018Z,85.90
2023-01-26T07:12:42.688Z,86.00
2023-01-26T07:15:11.621Z,77.80
2023-01-26T07:17:40.717Z,86.30
2023-01-26T07:20:10.485Z,85.90
2023-01-26T07:22:38.877Z,90.10
2023-01-26T07:25:09.234Z,86.70
2023-01-26T07:27:37.622Z,84.80
2023-01-26T07:30:06.855Z,84.70
2023-01-26T07:35:03.040Z,73.20
2023-01-26T07:37:31.362Z,76.40
2023-01-26T07:40:02.573Z,68.00
2023-01-26T07:42:31.255Z,76.90
2023-01-26T07:45:09.173Z,58.20
2023-01-26T07:47:41.224Z,75.10
2023-01-26T07:50:11.639Z,62.70
2023-01-26T07:52:40.443Z,59.60
2023-01-26T07:55:08.537Z,58.40
2023-01-26T07:57:36.625Z,61.50
2023-01-26T08:00:05.457Z,56.30
2023-01-26T08:02:39.959Z,52.20
2023-01-26T08:05:09.021Z,55.60
2023-01-26T08:07:37.256Z,60.20
2023-01-26T08:10:06.084Z,52.40
2023-01-26T08:12:40.836Z,51.80
2023-01-26T08:15:10.947Z,57.60
2023-01-26T08:17:39.943Z,56.80
2023-01-26T08:20:09.861Z,57.10
2023-01-26T08:22:39.109Z,59.20
2023-01-26T08:25:08.252Z,59.20
2023-01-26T08:30:05.182Z,55.30
2023-01-26T08:32:33.956Z,59.80
2023-01-26T08:35:02.146Z,58.10
2023-01-26T08:37:30.543Z,59.60
2023-01-26T08:39:58.678Z,57.80
2023-01-26T08:42:26.799Z,50.40
2023-01-26T08:44:55.021Z,54.00
2023-01-26T08:47:23.813Z,47.00
2023-01-26T08:49:52.000Z,44.10
2023-01-26T08:52:21.617Z,47.90
2023-01-26T08:54:49.728Z,54.60
2023-01-26T08:57:17.945Z,46.00
2023-01-26T08:59:46.320Z,41.60
2023-01-26T09:02:14.653Z,42.30
2023-01-26T09:04:43.189Z,50.40
2023-01-26T09:07:13.410Z,56.60
2023-01-26T09:09:41.676Z,58.20
2023-01-26T09:12:09.752Z,53.90
2023-01-26T09:14:39.277Z,51.70
2023-01-26T09:17:07.492Z,51.80
2023-01-26T09:19:35.883Z,43.90
2023-01-26T09:22:04.063Z,48.30
2023-01-26T09:24:32.285Z,53.00
2023-01-26T09:27:00.761Z,51.50
2023-01-26T09:29:29.127Z,65.80
2023-01-26T09:31:57.275Z,57.40
2023-01-26T09:34:25.571Z,49.80
2023-01-26T09:36:53.763Z,49.00
2023-01-26T09:39:21.857Z,51.50
2023-01-26T09:41:56.536Z,48.10
2023-01-26T09:44:25.946Z,48.90
2023-01-26T09:47:08.552Z,48.50
2023-01-26T09:49:45.192Z,48.20
2023-01-26T09:52:31.096Z,55.00
2023-01-26T09:55:02.796Z,59.40
2023-01-26T09:57:42.604Z,53.50
2023-01-26T10:00:21.844Z,47.40
2023-01-26T10:03:20.915Z,53.90
2023-01-26T10:05:54.044Z,50.60
2023-01-26T10:08:42.385Z,53.50
2023-01-26T10:11:46.457Z,53.80
2023-01-26T10:14:42.616Z,55.10
2023-01-26T10:17:32.189Z,67.10
2023-01-26T10:20:39.619Z,64.80
2023-01-26T10:23:12.908Z,60.90
2023-01-26T10:25:41.974Z,60.30
2023-01-26T10:28:14.388Z,58.40
2023-01-26T10:30:44.731Z,68.90
2023-01-26T10:33:19.356Z,67.50
2023-01-26T10:35:47.869Z,72.00
2023-01-26T10:38:34.466Z,66.10
2023-01-26T10:41:18.752Z,61.20
2023-01-26T10:44:01.566Z,56.30
2023-01-26T10:46:36.545Z,63.90
2023-01-26T10:49:20.037Z,64.50
2023-01-26T10:52:09.404Z,62.60
2023-01-26T10:54:39.835Z,62.50
2023-01-26T10:57:16.860Z,58.40
2023-01-26T10:59:56.268Z,63.30
2023-01-26T11:02:28.044Z,62.60
2023-01-26T11:05:08.281Z,59.70
2023-01-26T11:07:40.429Z,61.20
2023-01-26T11:10:19.312Z,64.30
2023-01-26T11:12:48.485Z,64.70
2023-01-26T11:15:17.034Z,61.30
2023-01-26T11:17:51.562Z,67.60
2023-01-26T11:20:52.110Z,62.60
2023-01-26T11:23:42.717Z,57.00
2023-01-26T11:26:26.771Z,61.40
2023-01-26T11:29:19.129Z,68.30
2023-01-26T11:32:08.011Z,74.70
2023-01-26T11:34:57.097Z,61.60
2023-01-26T11:37:54.053Z,52.40
2023-01-26T11:40:31.130Z,60.30
2023-01-26T11:43:07.064Z,60.10
2023-01-26T11:45:40.655Z,53.70
2023-01-26T11:48:29.919Z,51.30
2023-01-26T11:51:04.749Z,51.00
2023-01-26T11:53:55.221Z,46.20
2023-01-26T11:56:48.899Z,44.00
2023-01-26T11:59:22.779Z,42.20
2023-01-26T12:02:04.215Z,41.90
2023-01-26T12:04:35.794Z,35.60
2023-01-26T14:05:20.962Z,24.50
2023-01-26T14:07:47.968Z,24.80
2023-01-26T14:10:17.642Z,24.00
2023-01-26T14:12:56.639Z,25.00
2023-01-26T14:17:58.595Z,24.00
2023-01-26T14:20:28.669Z,26.30
2023-01-26T14:23:03.424Z,27.90
2023-01-26T14:25:30.214Z,27.50
2023-01-26T14:27:56.704Z,24.70
2023-01-26T14:30:29.198Z,24.20
2023-01-26T14:32:58.683Z,23.80
2023-01-26T14:35:25.288Z,25.10
2023-01-26T14:38:16.006Z,26.70
2023-01-26T14:40:52.455Z,26.50
2023-01-26T14:54:51.672Z,29.40
2023-01-26T14:57:21.107Z,29.00
2023-01-26T14:59:50.966Z,27.20
2023-01-26T15:02:23.854Z,25.70
2023-01-26T15:04:59.079Z,27.50
2023-01-26T15:07:39.214Z,26.00
2023-01-26T15:10:42.017Z,27.50
2023-01-26T15:13:10.705Z,27.40
2023-01-26T15:15:40.520Z,27.70
2023-01-26T15:18:14.934Z,27.60
2023-01-26T15:20:43.010Z,28.20
2023-01-26T15:23:30.044Z,27.90
2023-01-26T15:26:31.712Z,27.10
2023-01-26T15:29:04.779Z,27.10
2023-01-26T15:31:34.829Z,27.40
2023-01-26T15:34:03.576Z,27.70
2023-01-26T15:36:49.154Z,24.70
2023-01-26T15:39:20.924Z,28.40
2023-01-26T15:42:10.768Z,29.10
2023-01-26T15:44:38.828Z,29.80
2023-01-26T15:47:11.460Z,29.90
2023-01-26T15:49:39.747Z,28.50
2023-01-26T15:52:14.876Z,29.60
2023-01-26T15:54:45.258Z,29.20
2023-01-26T15:57:13.532Z,29.40
2023-01-26T15:59:41.747Z,26.70
2023-01-26T16:02:19.389Z,26.80
2023-01-26T16:04:47.700Z,27.00
2023-01-26T16:07:17.494Z,26.10
2023-01-26T16:09:45.505Z,28.30
2023-01-26T16:12:32.740Z,26.90
2023-01-26T16:15:01.192Z,29.40
2023-01-26T16:17:29.570Z,29.30
2023-01-26T16:19:57.737Z,27.20
2023-01-26T16:22:25.921Z,27.70
2023-01-26T16:24:54.195Z,25.00
2023-01-26T16:27:22.774Z,25.90
2023-01-26T16:29:51.165Z,27.00
2023-01-26T16:32:29.230Z,27.10
2023-01-26T16:34:57.624Z,26.80
2023-01-26T16:37:25.742Z,27.90
2023-01-26T16:39:53.736Z,28.50
2023-01-26T16:42:22.410Z,29.00
2023-01-26T16:44:50.944Z,27.40
2023-01-26T16:47:18.922Z,28.20
2023-01-26T16:49:50.442Z,29.70
2023-01-26T16:52:18.478Z,27.30
2023-01-26T16:54:48.385Z,29.00
2023-01-26T16:57:17.483Z,31.10
2023-01-26T16:59:45.791Z,30.00
2023-01-26T17:02:23.268Z,30.90
2023-01-26T17:04:51.253Z,30.40
2023-01-26T17:07:19.576Z,32.00
2023-01-26T17:09:47.629Z,31.00
2023-01-26T17:12:15.751Z,31.70
2023-01-26T17:14:44.023Z,29.80
2023-01-26T17:17:12.155Z,33.50
2023-01-26T17:19:40.489Z,35.10
2023-01-26T17:22:08.501Z,32.40
2023-01-26T17:24:36.639Z,33.20
2023-01-26T17:27:05.377Z,34.80
2023-01-26T17:29:33.944Z,37.50
2023-01-26T17:32:02.526Z,38.10
2023-01-26T17:34:30.598Z,35.70
2023-01-26T17:37:00.075Z,35.20
2023-01-26T17:39:28.017Z,32.00
2023-01-26T17:41:56.566Z,38.00
2023-01-26T17:44:24.566Z,35.10
2023-01-26T17:49:21.672Z,33.90
2023-01-26T17:51:49.687Z,26.10
2023-01-26T17:54:19.367Z,33.10
2023-01-26T17:56:47.532Z,32.60
2023-01-26T17:59:15.675Z,33.60
2023-01-26T18:01:43.708Z,35.20
2023-01-26T18:04:11.755Z,34.10
2023-01-26T20:07:07.687Z,28.70
2023-01-26T20:09:36.020Z,27.00
2023-01-26T20:23:54.902Z,24.00
2023-01-26T20:26:26.871Z,24.10
2023-01-26T20:28:57.936Z,20.90
2023-01-26T20:31:26.639Z,21.40
2023-01-26T20:33:58.567Z,21.10
2023-01-26T20:36:27.857Z,23.70
2023-01-26T20:41:27.512Z,21.70
2023-01-26T20:44:00.463Z,23.00
2023-01-26T20:46:32.550Z,22.10
2023-01-26T20:49:00.764Z,22.80
2023-01-26T20:51:31.267Z,23.90
2023-01-26T20:53:59.525Z,25.70
2023-01-26T20:56:27.632Z,27.60
2023-01-26T20:58:56.022Z,28.00
2023-01-26T21:01:24.131Z,25.90
2023-01-26T21:03:52.398Z,30.80
2023-01-26T21:06:20.982Z,29.20
2023-01-26T21:08:49.617Z,20.70
2023-01-26T21:11:23.411Z,21.40
2023-01-26T21:13:54.636Z,19.60
2023-01-26T21:16:23.571Z,20.00
2023-01-26T21:18:52.305Z,21.10
2023-01-26T21:21:21.810Z,22.30
2023-01-26T21:23:50.763Z,21.00
2023-01-26T21:26:22.365Z,20.50
2023-01-26T21:28:52.106Z,22.10
2023-01-26T21:31:21.344Z,20.50
2023-01-26T21:33:49.751Z,20.90
2023-01-26T21:36:20.381Z,22.10
2023-01-26T21:38:50.893Z,22.20
2023-01-26T21:41:55.878Z,20.80
2023-01-26T21:44:25.173Z,23.60
2023-01-26T21:47:01.220Z,23.30
2023-01-26T21:49:29.555Z,26.10
2023-01-26T21:52:17.651Z,25.80
2023-01-26T21:54:46.317Z,25.20
2023-01-26T21:57:33.040Z,23.80
2023-01-26T22:00:03.765Z,23.10
2023-01-26T22:02:32.996Z,24.80
2023-01-26T22:05:01.211Z,26.90
2023-01-26T22:07:32.276Z,24.10
2023-01-26T22:10:00.497Z,23.80
2023-01-26T22:21:33.492Z,22.70
2023-01-26T22:24:01.630Z,23.90
2023-01-26T22:26:30.548Z,24.90
2023-01-26T22:29:00.259Z,26.90
2023-01-26T22:31:29.128Z,27.80
2023-01-26T22:33:58.244Z,25.50
2023-01-26T22:36:27.065Z,25.80
2023-01-26T22:38:55.310Z,26.40
2023-01-26T22:41:25.221Z,27.00
2023-01-26T22:43:55.220Z,28.80
2023-01-26T22:46:24.119Z,28.20
2023-01-26T22:48:52.267Z,25.40
2023-01-26T22:51:22.319Z,26.00
2023-01-26T22:53:51.557Z,27.90
2023-01-26T22:56:20.132Z,28.40
2023-01-26T22:59:00.140Z,29.70
2023-01-26T23:01:29.991Z,31.80
2023-01-26T23:03:59.078Z,29.80
2023-01-26T23:06:27.685Z,33.80
2023-01-26T23:09:01.173Z,36.10
2023-01-26T23:11:30.749Z,34.40
2023-01-26T23:13:59.109Z,33.30
2023-01-26T23:16:27.649Z,35.40
2023-01-26T23:18:56.837Z,30.80
2023-01-26T23:21:25.256Z,29.00
2023-01-26T23:23:53.349Z,32.50
2023-01-26T23:26:21.523Z,30.40
2023-01-26T23:28:49.519Z,23.10
2023-01-26T23:31:18.555Z,32.10
2023-01-26T23:33:46.895Z,34.10
2023-01-26T23:36:16.727Z,31.20
2023-01-26T23:38:45.869Z,29.00
2023-01-26T23:41:14.468Z,30.20
2023-01-26T23:43:42.519Z,28.20
2023-01-26T23:46:11.430Z,28.50
2023-01-26T23:48:39.419Z,28.30
2023-01-26T23:51:09.209Z,28.80
2023-01-26T23:53:38.048Z,29.80
2023-01-26T23:56:08.814Z,30.60
2023-01-26T23:58:37.667Z,31.00
